createdAt,value
2019-02-12T00:02:17.651Z,36.10
2019-02-12T00:04:43.703Z,36.10
2019-02-12T00:07:09.757Z,36.10
2019-02-12T00:09:35.711Z,36.10
2019-02-12T00:12:01.782Z,36.10
2019-02-12T00:14:27.738Z,36.10
2019-02-12T00:16:53.731Z,36.10
2019-02-12T00:19:19.804Z,36.10
2019-02-12T00:21:45.857Z,36.00
2019-02-12T00:24:11.805Z,36.10
2019-02-12T00:26:37.754Z,36.10
2019-02-12T00:29:03.809Z,36.10
2019-02-12T00:31:29.757Z,36.10
2019-02-12T00:33:55.749Z,36.00
2019-02-12T00:36:21.733Z,36.00
2019-02-12T00:38:47.751Z,36.00
2019-02-12T00:41:13.700Z,36.10
2019-02-12T00:43:39.668Z,36.00
2019-02-12T00:46:05.641Z,36.00
2019-02-12T00:48:31.646Z,36.10
2019-02-12T00:50:57.601Z,36.60
2019-02-12T00:53:23.542Z,36.10
2019-02-12T00:55:49.536Z,36.10
2019-02-12T00:58:21.278Z,36.10
2019-02-12T01:00:47.346Z,36.10
2019-02-12T01:03:13.287Z,36.10
2019-02-12T01:05:39.245Z,36.10
2019-02-12T01:08:05.348Z,36.10
2019-02-12T01:10:31.300Z,36.10
2019-02-12T01:12:57.259Z,36.10
2019-02-12T01:15:25.185Z,36.10
2019-02-12T01:17:51.798Z,36.20
2019-02-12T01:20:17.770Z,36.20
2019-02-12T01:22:43.737Z,36.10
2019-02-12T01:25:09.713Z,36.10
2019-02-12T01:27:35.759Z,36.20
2019-02-12T01:30:01.837Z,36.20
2019-02-12T01:32:27.885Z,36.10
2019-02-12T01:34:53.820Z,36.20
2019-02-12T01:37:19.790Z,36.20
2019-02-12T01:39:45.844Z,36.20
2019-02-12T01:42:11.805Z,36.20
2019-02-12T01:44:37.778Z,36.20
2019-02-12T01:47:03.765Z,36.80
2019-02-12T01:49:29.762Z,36.20
2019-02-12T01:51:55.739Z,36.20
2019-02-12T01:54:21.785Z,36.10
2019-02-12T01:56:47.762Z,36.10
2019-02-12T01:59:13.742Z,36.10
2019-02-12T02:01:39.700Z,36.10
2019-02-12T02:04:05.661Z,36.10
2019-02-12T02:06:31.628Z,36.10
2019-02-12T02:08:57.681Z,36.10
2019-02-12T02:11:23.657Z,36.10
2019-02-12T02:13:49.721Z,36.10
2019-02-12T02:16:15.757Z,36.20
2019-02-12T02:18:41.696Z,36.80
2019-02-12T02:21:07.650Z,36.80
2019-02-12T02:23:33.590Z,36.10
2019-02-12T02:25:59.528Z,36.10
2019-02-12T02:28:25.468Z,36.10
2019-02-12T02:30:51.438Z,36.10
2019-02-12T02:33:17.488Z,36.10
2019-02-12T02:35:43.434Z,36.10
2019-02-12T02:38:09.380Z,36.20
2019-02-12T02:40:35.351Z,36.20
2019-02-12T02:43:01.270Z,36.10
2019-02-12T02:45:27.206Z,36.20
2019-02-12T02:47:53.501Z,36.20
2019-02-12T02:50:19.449Z,36.30
2019-02-12T02:52:45.403Z,36.30
2019-02-12T02:55:11.376Z,36.30
2019-02-12T02:57:37.450Z,36.30
2019-02-12T03:00:03.498Z,36.30
2019-02-12T03:02:29.475Z,36.30
2019-02-12T03:04:55.550Z,36.30
2019-02-12T03:07:21.511Z,36.30
2019-02-12T03:09:47.483Z,36.30
2019-02-12T03:12:13.474Z,36.30
2019-02-12T03:14:39.508Z,36.40
2019-02-12T03:17:05.465Z,36.40
2019-02-12T03:19:31.429Z,36.40
2019-02-12T03:22:03.434Z,36.30
2019-02-12T03:24:25.491Z,36.30
2019-02-12T03:26:51.522Z,36.40
2019-02-12T03:29:17.499Z,36.40
2019-02-12T03:31:43.452Z,36.30
2019-02-12T03:34:09.428Z,36.50
2019-02-12T03:36:35.478Z,36.40
2019-02-12T03:39:01.419Z,36.40
2019-02-12T03:41:27.372Z,36.40
2019-02-12T03:43:53.340Z,36.40
2019-02-12T03:46:19.405Z,36.40
2019-02-12T03:48:45.367Z,36.40
2019-02-12T03:51:11.314Z,36.40
2019-02-12T03:53:37.265Z,36.40
2019-02-12T03:56:03.218Z,36.40
2019-02-12T03:58:32.026Z,36.40
2019-02-12T04:00:58.064Z,36.40
2019-02-12T04:03:23.996Z,36.40
2019-02-12T04:05:49.956Z,36.30
2019-02-12T04:08:18.698Z,36.30
2019-02-12T04:10:44.678Z,36.40
2019-02-12T04:13:10.626Z,36.40
2019-02-12T04:15:36.565Z,36.30
2019-02-12T04:18:02.534Z,36.30
2019-02-12T04:20:28.563Z,36.30
2019-02-12T04:22:54.603Z,36.40
2019-02-12T04:25:20.576Z,36.30
2019-02-12T04:27:46.605Z,36.30
2019-02-12T04:30:12.552Z,36.30
2019-02-12T04:32:38.516Z,36.30
2019-02-12T04:35:04.447Z,36.30
2019-02-12T04:37:30.414Z,36.30
2019-02-12T04:39:56.359Z,36.30
2019-02-12T04:42:22.329Z,37.00
2019-02-12T04:44:48.262Z,36.30
2019-02-12T04:47:14.328Z,36.30
2019-02-12T04:49:40.273Z,36.30
2019-02-12T04:52:06.248Z,36.30
2019-02-12T04:54:32.274Z,36.20
2019-02-12T04:56:58.218Z,36.20
2019-02-12T04:59:24.156Z,36.30
2019-02-12T05:01:50.100Z,36.20
2019-02-12T05:04:16.052Z,36.30
2019-02-12T05:06:42.103Z,36.30
2019-02-12T05:09:08.044Z,36.30
2019-02-12T05:11:34.006Z,36.30
2019-02-12T05:13:59.928Z,36.30
2019-02-12T05:16:25.888Z,36.30
2019-02-12T05:18:51.845Z,36.20
2019-02-12T05:21:17.807Z,36.20
2019-02-12T05:23:43.790Z,36.30
2019-02-12T05:26:09.741Z,36.20
2019-02-12T05:28:35.714Z,36.10
2019-02-12T05:31:01.657Z,36.20
2019-02-12T05:33:27.624Z,36.20
2019-02-12T05:35:53.553Z,36.30
2019-02-12T05:38:19.484Z,36.30
2019-02-12T05:40:45.456Z,36.40
2019-02-12T05:43:11.412Z,36.40
2019-02-12T05:45:37.444Z,36.40
2019-02-12T05:48:03.414Z,36.40
2019-02-12T05:50:29.374Z,36.40
2019-02-12T05:52:55.406Z,36.40
2019-02-12T05:55:21.348Z,36.50
2019-02-12T05:57:47.311Z,36.50
2019-02-12T06:00:14.253Z,36.40
2019-02-12T06:02:40.307Z,36.40
2019-02-12T06:05:06.333Z,36.70
2019-02-12T06:07:32.290Z,37.20
2019-02-12T06:09:58.225Z,37.50
2019-02-12T06:12:24.207Z,37.40
2019-02-12T06:14:50.258Z,37.60
2019-02-12T06:17:16.236Z,37.40
2019-02-12T06:19:42.167Z,37.60
2019-02-12T06:22:08.116Z,37.60
2019-02-12T06:24:34.095Z,37.50
2019-02-12T06:27:00.155Z,37.40
2019-02-12T06:29:26.136Z,37.40
2019-02-12T06:31:52.061Z,37.30
2019-02-12T06:34:18.022Z,37.40
2019-02-12T06:36:44.046Z,37.30
2019-02-12T06:39:10.142Z,37.40
2019-02-12T06:41:36.092Z,37.30
2019-02-12T06:44:02.074Z,37.40
2019-02-12T06:46:29.599Z,37.50
2019-02-12T06:48:55.884Z,37.50
2019-02-12T06:51:21.846Z,37.50
2019-02-12T06:53:47.820Z,37.40
2019-02-12T06:56:13.766Z,37.40
2019-02-12T06:58:39.717Z,37.40
2019-02-12T07:01:05.678Z,37.40
2019-02-12T07:03:31.632Z,37.30
2019-02-12T07:05:57.603Z,37.20
2019-02-12T07:08:25.392Z,37.20
2019-02-12T07:10:51.360Z,37.10
2019-02-12T07:13:17.319Z,37.10
2019-02-12T07:15:43.282Z,37.00
2019-02-12T07:18:09.586Z,36.90
2019-02-12T07:20:35.548Z,36.90
2019-02-12T07:23:01.475Z,36.90
2019-02-12T07:25:27.429Z,37.00
2019-02-12T07:27:54.100Z,37.50
2019-02-12T07:30:20.039Z,36.90
2019-02-12T07:32:46.048Z,36.90
2019-02-12T07:35:12.139Z,36.10
2019-02-12T07:37:38.168Z,34.40
2019-02-12T07:40:04.249Z,33.60
2019-02-12T07:42:30.236Z,33.00
2019-02-12T07:44:56.295Z,32.30
2019-02-12T07:47:22.388Z,32.00
2019-02-12T07:49:48.361Z,31.80
2019-02-12T07:52:14.345Z,32.00
2019-02-12T07:54:40.389Z,32.30
2019-02-12T07:57:06.410Z,32.30
2019-02-12T07:59:32.379Z,32.30
2019-02-12T08:01:58.318Z,32.30
2019-02-12T08:04:24.376Z,32.20
2019-02-12T08:06:50.309Z,32.10
2019-02-12T08:09:16.241Z,32.10
2019-02-12T08:11:42.277Z,32.20
2019-02-12T08:14:08.251Z,32.30
2019-02-12T08:16:34.202Z,32.30
2019-02-12T08:19:00.153Z,32.30
2019-02-12T08:21:26.121Z,32.50
2019-02-12T08:23:52.047Z,32.50
2019-02-12T08:26:18.040Z,32.60
2019-02-12T08:28:44.010Z,32.70
2019-02-12T08:31:09.973Z,32.80
2019-02-12T08:33:35.946Z,32.80
2019-02-12T08:36:02.036Z,32.90
2019-02-12T08:38:28.080Z,32.90
2019-02-12T08:40:54.004Z,32.90
2019-02-12T08:43:19.973Z,32.90
2019-02-12T08:45:45.924Z,33.00
2019-02-12T08:48:30.407Z,33.00
2019-02-12T08:50:56.457Z,33.20
2019-02-12T08:53:22.463Z,33.30
2019-02-12T08:55:48.409Z,33.40
2019-02-12T08:58:14.378Z,33.50
2019-02-12T09:00:40.314Z,33.60
2019-02-12T09:03:06.310Z,33.50
2019-02-12T09:05:32.247Z,34.20
2019-02-12T09:07:58.200Z,33.60
2019-02-12T09:10:24.150Z,34.30
2019-02-12T09:12:50.193Z,34.20
2019-02-12T09:15:16.259Z,33.90
2019-02-12T09:17:42.334Z,34.00
2019-02-12T09:20:08.282Z,34.00
2019-02-12T09:22:34.244Z,34.00
2019-02-12T09:25:00.271Z,34.00
2019-02-12T09:27:26.413Z,34.00
2019-02-12T09:29:52.373Z,34.00
2019-02-12T09:32:18.413Z,34.10
2019-02-12T09:34:44.462Z,34.20
2019-02-12T09:37:10.422Z,34.20
2019-02-12T09:39:36.374Z,34.30
2019-02-12T09:42:02.367Z,34.30
2019-02-12T09:44:28.440Z,34.30
2019-02-12T09:46:55.474Z,34.40
2019-02-12T09:49:21.576Z,34.40
2019-02-12T09:51:48.592Z,34.40
2019-02-12T09:54:14.564Z,34.40
2019-02-12T09:56:40.511Z,34.40
2019-02-12T09:59:06.465Z,34.50
2019-02-12T10:01:32.466Z,34.50
2019-02-12T10:03:59.362Z,34.50
2019-02-12T10:06:25.306Z,34.60
2019-02-12T10:08:51.259Z,34.60
2019-02-12T10:11:17.286Z,34.60
2019-02-12T10:13:43.230Z,34.70
2019-02-12T10:16:09.162Z,34.80
2019-02-12T10:18:35.108Z,34.80
2019-02-12T10:21:01.067Z,34.80
2019-02-12T10:23:27.112Z,34.80
2019-02-12T10:25:53.074Z,34.90
2019-02-12T10:28:19.020Z,35.00
2019-02-12T10:30:44.990Z,34.90
2019-02-12T10:33:10.934Z,34.90
2019-02-12T10:35:36.902Z,34.90
2019-02-12T10:38:02.953Z,34.90
2019-02-12T10:40:28.897Z,34.90
2019-02-12T10:42:54.859Z,34.90
2019-02-12T10:45:20.885Z,34.90
2019-02-12T10:47:46.881Z,35.00
2019-02-12T10:50:12.838Z,34.90
2019-02-12T10:52:38.874Z,35.00
2019-02-12T10:55:04.795Z,34.90
2019-02-12T10:57:30.764Z,35.00
2019-02-12T10:59:56.732Z,35.10
2019-02-12T11:02:22.696Z,35.10
2019-02-12T11:04:48.629Z,35.10
2019-02-12T11:07:14.598Z,35.10
2019-02-12T11:09:42.767Z,35.20
2019-02-12T11:12:09.396Z,35.20
2019-02-12T11:14:35.376Z,35.20
2019-02-12T11:17:01.430Z,35.20
2019-02-12T11:19:27.387Z,35.20
2019-02-12T11:21:53.335Z,35.20
2019-02-12T11:24:19.299Z,35.30
2019-02-12T11:26:45.231Z,35.30
2019-02-12T11:29:11.191Z,35.30
2019-02-12T11:31:37.143Z,35.30
2019-02-12T11:34:04.187Z,35.90
2019-02-12T11:36:30.251Z,35.20
2019-02-12T11:38:56.203Z,35.30
2019-02-12T11:41:22.174Z,35.30
2019-02-12T11:43:48.247Z,35.30
2019-02-12T11:46:14.196Z,35.30
2019-02-12T11:48:40.237Z,36.00
2019-02-12T11:51:06.214Z,35.30
2019-02-12T11:53:32.188Z,35.30
2019-02-12T11:55:58.170Z,35.40
2019-02-12T11:58:24.120Z,35.40
2019-02-12T12:00:52.134Z,35.40
2019-02-12T12:03:18.413Z,35.50
2019-02-12T12:05:44.447Z,35.50
2019-02-12T12:08:10.415Z,35.50
2019-02-12T12:10:36.473Z,35.50
2019-02-12T12:13:02.410Z,35.50
2019-02-12T12:15:28.361Z,35.50
2019-02-12T12:17:55.119Z,35.50
2019-02-12T12:20:21.062Z,35.50
2019-02-12T12:22:47.125Z,35.50
2019-02-12T12:25:13.172Z,35.50
2019-02-12T12:27:39.151Z,35.60
2019-02-12T12:30:05.103Z,35.50
2019-02-12T12:32:31.070Z,35.60
2019-02-12T12:34:59.111Z,35.50
2019-02-12T12:37:24.895Z,35.60
2019-02-12T12:39:50.871Z,35.50
2019-02-12T12:42:16.839Z,35.60
2019-02-12T12:44:42.833Z,35.60
2019-02-12T12:47:08.864Z,35.80
2019-02-12T12:49:34.942Z,35.80
2019-02-12T12:52:00.895Z,36.00
2019-02-12T12:54:26.866Z,36.10
2019-02-12T12:56:52.919Z,36.00
2019-02-12T12:59:18.984Z,36.00
2019-02-12T13:01:44.942Z,36.10
2019-02-12T13:04:10.975Z,36.10
2019-02-12T13:06:36.959Z,36.00
2019-02-12T13:09:04.223Z,36.10
2019-02-12T13:11:30.184Z,36.00
2019-02-12T13:13:56.175Z,36.10
2019-02-12T13:16:22.119Z,36.10
2019-02-12T13:18:48.077Z,36.00
2019-02-12T13:21:14.030Z,36.00
2019-02-12T13:23:40.156Z,36.00
2019-02-12T13:26:06.208Z,36.00
2019-02-12T13:28:32.244Z,36.10
2019-02-12T13:30:58.193Z,36.10
2019-02-12T13:33:24.118Z,36.10
2019-02-12T13:35:50.067Z,36.00
2019-02-12T13:38:16.103Z,36.00
2019-02-12T13:40:42.152Z,35.80
2019-02-12T13:43:08.114Z,36.10
2019-02-12T13:45:34.094Z,36.10
2019-02-12T13:48:00.048Z,36.00
2019-02-12T13:50:25.992Z,36.00
2019-02-12T13:52:51.946Z,36.00
2019-02-12T13:55:17.955Z,36.10
2019-02-12T13:57:44.030Z,36.00
2019-02-12T14:00:10.182Z,36.10
2019-02-12T14:02:36.165Z,36.00
2019-02-12T14:05:02.133Z,36.30
2019-02-12T14:07:28.206Z,36.00
2019-02-12T14:09:54.138Z,36.00
2019-02-12T14:12:21.149Z,36.00
2019-02-12T14:14:47.158Z,36.00
2019-02-12T14:17:13.102Z,36.00
2019-02-12T14:19:39.605Z,36.00
2019-02-12T14:22:05.561Z,36.00
2019-02-12T14:24:31.515Z,36.00
2019-02-12T14:26:57.465Z,36.00
2019-02-12T14:29:23.432Z,36.00
2019-02-12T14:31:53.012Z,36.00
2019-02-12T14:34:17.261Z,36.10
2019-02-12T14:36:43.243Z,36.00
2019-02-12T14:39:09.234Z,36.00
2019-02-12T14:41:35.296Z,36.00
2019-02-12T14:44:01.256Z,36.00
2019-02-12T14:46:27.187Z,36.00
2019-02-12T14:48:53.130Z,36.00
2019-02-12T14:51:19.068Z,36.00
2019-02-12T14:53:45.009Z,36.00
2019-02-12T14:56:11.549Z,36.00
2019-02-12T14:58:37.732Z,36.00
2019-02-12T15:01:03.769Z,36.00
2019-02-12T15:03:29.731Z,36.10
2019-02-12T15:05:55.771Z,36.00
2019-02-12T15:08:25.267Z,36.00
2019-02-12T15:10:51.225Z,36.10
2019-02-12T15:13:17.164Z,36.10
2019-02-12T15:15:43.262Z,36.10
2019-02-12T15:18:09.220Z,36.10
2019-02-12T15:20:35.179Z,36.00
2019-02-12T15:23:01.161Z,36.00
2019-02-12T15:25:27.143Z,36.10
2019-02-12T15:27:53.105Z,36.00
2019-02-12T15:30:19.050Z,36.20
2019-02-12T15:32:45.010Z,36.50
2019-02-12T15:35:10.977Z,36.50
2019-02-12T15:37:36.904Z,36.50
2019-02-12T15:40:02.851Z,37.10
2019-02-12T15:42:28.810Z,37.10
2019-02-12T15:44:54.772Z,37.40
2019-02-12T15:47:20.734Z,37.60
2019-02-12T15:49:46.735Z,37.70
2019-02-12T15:52:12.803Z,37.60
2019-02-12T15:54:38.897Z,37.80
2019-02-12T15:57:04.839Z,37.60
2019-02-12T15:59:31.496Z,37.80
2019-02-12T16:01:58.644Z,37.80
2019-02-12T16:04:25.816Z,37.80
2019-02-12T16:06:51.949Z,37.50
2019-02-12T16:09:17.904Z,37.60
2019-02-12T16:11:44.130Z,37.40
2019-02-12T16:14:10.405Z,37.20
2019-02-12T16:16:36.363Z,36.90
2019-02-12T16:19:02.310Z,36.80
2019-02-12T16:21:28.284Z,36.80
2019-02-12T16:23:54.317Z,36.80
2019-02-12T16:26:20.275Z,36.80
2019-02-12T16:28:46.237Z,36.70
2019-02-12T16:31:12.281Z,36.40
2019-02-12T16:33:38.216Z,36.40
2019-02-12T16:36:04.214Z,36.30
2019-02-12T16:38:30.144Z,36.20
2019-02-12T16:40:56.131Z,36.30
2019-02-12T16:43:22.175Z,36.20
2019-02-12T16:45:48.116Z,36.20
2019-02-12T16:48:14.076Z,36.10
2019-02-12T16:50:40.054Z,36.00
2019-02-12T16:53:06.767Z,36.00
2019-02-12T16:55:33.282Z,35.80
2019-02-12T16:58:00.207Z,35.40
2019-02-12T17:00:26.147Z,35.70
2019-02-12T17:02:52.209Z,35.50
2019-02-12T17:05:18.191Z,35.50
2019-02-12T17:07:44.151Z,35.40
2019-02-12T17:10:10.121Z,35.40
2019-02-12T17:12:36.063Z,35.40
2019-02-12T17:15:02.043Z,35.40
2019-02-12T17:17:28.109Z,35.30
2019-02-12T17:19:54.181Z,35.40
2019-02-12T17:22:20.289Z,35.30
2019-02-12T17:24:46.321Z,35.40
2019-02-12T17:27:12.290Z,35.20
2019-02-12T17:29:38.365Z,35.30
2019-02-12T17:32:04.328Z,35.30
2019-02-12T17:34:30.276Z,35.40
2019-02-12T17:36:56.245Z,35.30
2019-02-12T17:39:22.219Z,35.30
2019-02-12T17:41:48.165Z,35.30
2019-02-12T17:44:14.121Z,35.30
2019-02-12T17:46:40.085Z,35.40
2019-02-12T17:49:06.044Z,36.00
2019-02-12T17:51:32.102Z,35.40
2019-02-12T17:53:58.073Z,35.50
2019-02-12T17:56:25.163Z,35.60
2019-02-12T17:58:51.373Z,35.60
2019-02-12T18:01:17.342Z,35.60
2019-02-12T18:03:43.303Z,35.70
2019-02-12T18:06:09.261Z,35.70
2019-02-12T18:08:35.201Z,35.60
2019-02-12T18:11:01.166Z,35.60
2019-02-12T18:13:27.229Z,35.60
2019-02-12T18:15:53.193Z,35.60
2019-02-12T18:18:19.941Z,35.60
2019-02-12T18:20:45.901Z,35.60
2019-02-12T18:23:11.827Z,35.60
2019-02-12T18:25:37.789Z,35.70
2019-02-12T18:28:03.753Z,35.60
2019-02-12T18:30:29.708Z,36.30
2019-02-12T18:32:55.664Z,35.60
2019-02-12T18:35:21.644Z,35.60
2019-02-12T18:37:47.687Z,35.70
2019-02-12T18:40:13.639Z,35.60
2019-02-12T18:42:39.575Z,35.50
2019-02-12T18:45:05.551Z,35.50
2019-02-12T18:47:31.519Z,35.60
2019-02-12T18:49:57.581Z,35.60
2019-02-12T18:52:23.538Z,35.50
2019-02-12T18:54:49.511Z,35.60
2019-02-12T18:57:15.468Z,35.50
2019-02-12T18:59:41.420Z,36.10
2019-02-12T19:02:07.386Z,35.60
2019-02-12T19:04:33.329Z,35.70
2019-02-12T19:06:59.306Z,36.00
2019-02-12T19:09:25.373Z,36.10
2019-02-12T19:11:54.312Z,36.30
2019-02-12T19:14:19.329Z,36.50
2019-02-12T19:16:45.289Z,36.40
2019-02-12T19:19:11.289Z,36.60
2019-02-12T19:21:37.357Z,36.60
2019-02-12T19:24:03.274Z,36.40
2019-02-12T19:26:29.188Z,36.40
2019-02-12T19:28:55.128Z,36.40
2019-02-12T19:31:21.060Z,36.40
2019-02-12T19:33:47.084Z,36.30
2019-02-12T19:36:13.005Z,36.20
2019-02-12T19:38:38.921Z,36.30
2019-02-12T19:41:04.877Z,36.30
2019-02-12T19:43:30.831Z,36.20
2019-02-12T19:45:56.743Z,36.30
2019-02-12T19:48:22.734Z,36.20
2019-02-12T19:50:48.666Z,36.50
2019-02-12T19:53:14.572Z,36.00
2019-02-12T19:55:40.522Z,35.80
2019-02-12T19:58:06.433Z,36.30
2019-02-12T20:00:32.372Z,35.60
2019-02-12T20:02:58.452Z,35.20
2019-02-12T20:05:24.535Z,35.60
2019-02-12T20:07:50.761Z,35.60
2019-02-12T20:10:16.892Z,35.40
2019-02-12T20:12:42.832Z,36.20
2019-02-12T20:15:08.760Z,35.60
2019-02-12T20:17:34.728Z,35.70
2019-02-12T20:20:00.667Z,35.80
2019-02-12T20:22:26.672Z,35.90
2019-02-12T20:24:52.641Z,36.00
2019-02-12T20:27:18.629Z,36.00
2019-02-12T20:29:44.571Z,35.90
2019-02-12T20:32:10.573Z,35.80
2019-02-12T20:34:36.570Z,35.70
2019-02-12T20:37:02.535Z,35.60
2019-02-12T20:39:28.486Z,35.60
2019-02-12T20:41:54.443Z,35.70
2019-02-12T20:44:20.406Z,35.70
2019-02-12T20:46:46.312Z,35.70
2019-02-12T20:49:12.282Z,35.60
2019-02-12T20:51:38.248Z,35.60
2019-02-12T20:54:04.201Z,36.10
2019-02-12T20:56:30.124Z,35.50
2019-02-12T20:58:56.097Z,35.40
2019-02-12T21:01:22.042Z,35.50
2019-02-12T21:03:47.989Z,35.40
2019-02-12T21:06:14.035Z,35.30
2019-02-12T21:08:39.977Z,35.40
2019-02-12T21:11:05.885Z,35.50
2019-02-12T21:13:31.835Z,35.70
2019-02-12T21:15:57.776Z,35.70
2019-02-12T21:18:23.725Z,35.80
2019-02-12T21:20:49.650Z,35.80
2019-02-12T21:23:15.589Z,35.90
2019-02-12T21:25:42.005Z,35.90
2019-02-12T21:28:07.965Z,35.80
2019-02-12T21:30:34.084Z,35.80
2019-02-12T21:33:00.087Z,35.80
2019-02-12T21:35:26.140Z,35.80
2019-02-12T21:37:52.085Z,35.80
2019-02-12T21:40:18.046Z,35.80
2019-02-12T21:42:44.097Z,35.80
2019-02-12T21:45:10.036Z,35.70
2019-02-12T21:47:36.007Z,35.70
2019-02-12T21:50:02.778Z,35.70
2019-02-12T21:52:28.913Z,35.80
2019-02-12T21:54:54.845Z,35.70
2019-02-12T21:57:20.812Z,35.60
2019-02-12T21:59:46.762Z,35.70
2019-02-12T22:02:12.727Z,35.70
2019-02-12T22:04:38.669Z,35.70
2019-02-12T22:07:04.631Z,35.60
2019-02-12T22:09:30.588Z,35.70
2019-02-12T22:11:56.522Z,35.60
2019-02-12T22:14:22.492Z,35.80
2019-02-12T22:16:48.445Z,35.60
2019-02-12T22:19:14.411Z,35.60
2019-02-12T22:21:40.367Z,35.60
2019-02-12T22:24:06.408Z,35.60
2019-02-12T22:26:32.384Z,35.60
2019-02-12T22:28:58.445Z,35.70
2019-02-12T22:31:24.503Z,35.70
2019-02-12T22:33:50.466Z,35.80
2019-02-12T22:36:16.438Z,35.80
2019-02-12T22:38:42.424Z,35.80
2019-02-12T22:41:08.412Z,35.90
2019-02-12T22:43:54.283Z,35.80
2019-02-12T22:46:20.332Z,36.20
2019-02-12T22:48:46.283Z,35.90
2019-02-12T22:51:12.255Z,35.90
2019-02-12T22:53:38.231Z,35.90
2019-02-12T22:56:04.183Z,35.90
2019-02-12T22:58:30.156Z,36.00
2019-02-12T23:00:57.230Z,36.00
2019-02-12T23:03:23.259Z,36.00
2019-02-12T23:05:49.215Z,36.00
2019-02-12T23:08:28.392Z,36.00
2019-02-12T23:10:54.343Z,36.00
2019-02-12T23:13:20.356Z,35.90
2019-02-12T23:15:46.379Z,36.00
2019-02-12T23:18:12.472Z,36.00
2019-02-12T23:20:38.440Z,36.30
2019-02-12T23:23:04.376Z,36.00
2019-02-12T23:25:30.333Z,36.00
2019-02-12T23:27:57.657Z,36.00
2019-02-12T23:30:23.875Z,36.00
2019-02-12T23:32:49.860Z,36.10
2019-02-12T23:35:15.814Z,36.00
2019-02-12T23:37:41.870Z,36.00
2019-02-12T23:40:07.861Z,36.00
2019-02-12T23:42:33.949Z,36.00
2019-02-12T23:45:00.323Z,36.00
2019-02-12T23:47:26.404Z,35.90
2019-02-12T23:49:52.612Z,36.10
2019-02-12T23:52:19.091Z,36.00
2019-02-12T23:54:47.128Z,36.00
2019-02-12T23:57:13.077Z,36.00
2019-02-12T23:59:39.034Z,36.10
